GRB weather

Austin Straubel International Airport
Green Bay, Wisconsin, United States

Public forecast

Using degrees Fahrenheit for public forecast. Weather courtesy of forecast.io.

Current aviation weather report (METAR) for Austin Straubel International Airport

Retrieved 2019/11/20 17:53 UTC (34 minutes ago):

KGRB 201753Z 22004KT 7SM OVC031 04/01 A3013 RMK AO2 SLP208 T00390011 10039 20011 58004

Aviation forecast (TAF) for Austin Straubel International Airport

Retrieved 2019/11/20 18:33 UTC (0 seconds ago):

TAF KGRB 201730Z 2018/2118 19004KT 6SM BR OVC029 FM210100 15004KT P6SM OVC040 FM210500 16008G15KT 6SM BR OVC040 WS010/19040KT FM210800 16010G19KT 6SM RA OVC015 WS020/20040KT FM211100 18010G17KT 3SM RA OVC007 WS020/21045KT